AR92 weather

Unity Health Harris Medical Center Heliport
Newport, Arkansas, United States

Public forecast

Using degrees Fahrenheit for public forecast. Weather courtesy of forecast.io.

METAR (pilot weather report)

Closest report is Newport Regional Airport, 4.6 nm (8.5 km) ENE. Retrieved UTC (0 seconds ago):

TAF (pilot weather forecast)

Closest forecast is Jonesboro Municipal Airport, 32.9 nm (61.0 km) ENE. Retrieved 2019/07/23 12:24 UTC (5 hours ago):

TAF KJBR 231120Z 2312/2412 01009KT P6SM SKC FM231400 02012G18KT P6SM SKC FM232100 03010KT P6SM SKC FM240100 01005KT P6SM SKC